sensor_id;sensor_type;location;lat;lon;timestamp;P1;durP1;ratioP1;P2;durP2;ratioP2
71969;SDS011;59838;52.152;5.436;2023-06-14T00:00:32;4.70;;;1.42;;
71969;SDS011;59838;52.152;5.436;2023-06-14T00:03:00;5.53;;;1.63;;
71969;SDS011;59838;52.152;5.436;2023-06-14T00:05:30;5.70;;;1.70;;
71969;SDS011;59838;52.152;5.436;2023-06-14T00:07:58;7.43;;;1.58;;
71969;SDS011;59838;52.152;5.436;2023-06-14T00:10:26;3.70;;;1.40;;
71969;SDS011;59838;52.152;5.436;2023-06-14T00:12:57;4.43;;;1.60;;
71969;SDS011;59838;52.152;5.436;2023-06-14T00:15:23;4.10;;;1.33;;
71969;SDS011;59838;52.152;5.436;2023-06-14T00:17:50;2.90;;;1.00;;
71969;SDS011;59838;52.152;5.436;2023-06-14T00:20:17;3.60;;;1.33;;
71969;SDS011;59838;52.152;5.436;2023-06-14T00:22:44;4.43;;;1.35;;
71969;SDS011;59838;52.152;5.436;2023-06-14T00:25:11;7.95;;;1.88;;
71969;SDS011;59838;52.152;5.436;2023-06-14T00:27:54;5.75;;;1.50;;
71969;SDS011;59838;52.152;5.436;2023-06-14T00:30:21;2.13;;;1.27;;
71969;SDS011;59838;52.152;5.436;2023-06-14T00:32:48;2.83;;;0.93;;
71969;SDS011;59838;52.152;5.436;2023-06-14T00:35:15;5.45;;;1.65;;
71969;SDS011;59838;52.152;5.436;2023-06-14T00:37:42;4.93;;;1.17;;
71969;SDS011;59838;52.152;5.436;2023-06-14T00:40:08;2.38;;;1.48;;
71969;SDS011;59838;52.152;5.436;2023-06-14T00:42:35;3.73;;;1.20;;
71969;SDS011;59838;52.152;5.436;2023-06-14T00:45:01;2.97;;;0.98;;
71969;SDS011;59838;52.152;5.436;2023-06-14T00:47:28;2.78;;;1.15;;
71969;SDS011;59838;52.152;5.436;2023-06-14T00:49:55;2.70;;;1.05;;
71969;SDS011;59838;52.152;5.436;2023-06-14T00:52:23;5.07;;;1.38;;
71969;SDS011;59838;52.152;5.436;2023-06-14T00:54:53;5.27;;;1.30;;
71969;SDS011;59838;52.152;5.436;2023-06-14T00:57:20;5.78;;;1.23;;
71969;SDS011;59838;52.152;5.436;2023-06-14T00:59:48;4.53;;;1.00;;
71969;SDS011;59838;52.152;5.436;2023-06-14T01:02:15;6.40;;;1.63;;
71969;SDS011;59838;52.152;5.436;2023-06-14T01:04:43;3.17;;;1.10;;
71969;SDS011;59838;52.152;5.436;2023-06-14T01:07:23;5.67;;;2.30;;
71969;SDS011;59838;52.152;5.436;2023-06-14T01:12:40;6.63;;;1.17;;
71969;SDS011;59838;52.152;5.436;2023-06-14T01:15:17;3.88;;;1.30;;
71969;SDS011;59838;52.152;5.436;2023-06-14T01:17:44;3.45;;;1.30;;
71969;SDS011;59838;52.152;5.436;2023-06-14T01:20:13;3.77;;;1.40;;
71969;SDS011;59838;52.152;5.436;2023-06-14T01:22:51;4.25;;;1.27;;
71969;SDS011;59838;52.152;5.436;2023-06-14T01:25:20;7.28;;;1.15;;
71969;SDS011;59838;52.152;5.436;2023-06-14T01:28:05;3.13;;;1.20;;
71969;SDS011;59838;52.152;5.436;2023-06-14T01:30:41;3.45;;;1.50;;
71969;SDS011;59838;52.152;5.436;2023-06-14T01:33:12;3.37;;;1.63;;
71969;SDS011;59838;52.152;5.436;2023-06-14T01:35:44;3.00;;;1.15;;
71969;SDS011;59838;52.152;5.436;2023-06-14T01:38:12;3.75;;;0.90;;
71969;SDS011;59838;52.152;5.436;2023-06-14T01:40:40;3.05;;;1.08;;
71969;SDS011;59838;52.152;5.436;2023-06-14T01:43:13;6.10;;;1.63;;
71969;SDS011;59838;52.152;5.436;2023-06-14T01:45:41;5.17;;;1.27;;
71969;SDS011;59838;52.152;5.436;2023-06-14T01:48:09;1.80;;;1.02;;
71969;SDS011;59838;52.152;5.436;2023-06-14T01:50:35;6.30;;;0.82;;
71969;SDS011;59838;52.152;5.436;2023-06-14T01:53:02;9.05;;;1.35;;
71969;SDS011;59838;52.152;5.436;2023-06-14T01:55:28;1.73;;;0.73;;
71969;SDS011;59838;52.152;5.436;2023-06-14T01:57:55;2.20;;;1.10;;
71969;SDS011;59838;52.152;5.436;2023-06-14T02:00:22;3.67;;;1.40;;
71969;SDS011;59838;52.152;5.436;2023-06-14T02:02:48;4.78;;;1.20;;
71969;SDS011;59838;52.152;5.436;2023-06-14T02:05:15;3.70;;;1.40;;
71969;SDS011;59838;52.152;5.436;2023-06-14T02:07:45;3.90;;;1.35;;
71969;SDS011;59838;52.152;5.436;2023-06-14T02:10:13;6.33;;;1.20;;
71969;SDS011;59838;52.152;5.436;2023-06-14T02:12:40;4.30;;;1.30;;
71969;SDS011;59838;52.152;5.436;2023-06-14T02:15:07;3.67;;;1.08;;
71969;SDS011;59838;52.152;5.436;2023-06-14T02:17:34;5.43;;;1.45;;
71969;SDS011;59838;52.152;5.436;2023-06-14T02:20:00;3.88;;;1.02;;
71969;SDS011;59838;52.152;5.436;2023-06-14T02:22:31;2.43;;;1.33;;
71969;SDS011;59838;52.152;5.436;2023-06-14T02:24:57;4.50;;;0.93;;
71969;SDS011;59838;52.152;5.436;2023-06-14T02:27:27;4.82;;;1.35;;
71969;SDS011;59838;52.152;5.436;2023-06-14T02:29:54;4.95;;;1.27;;
71969;SDS011;59838;52.152;5.436;2023-06-14T02:32:21;6.00;;;1.17;;
71969;SDS011;59838;52.152;5.436;2023-06-14T02:34:47;6.90;;;1.20;;
71969;SDS011;59838;52.152;5.436;2023-06-14T02:37:16;3.65;;;2.03;;
71969;SDS011;59838;52.152;5.436;2023-06-14T02:39:43;9.20;;;1.40;;
71969;SDS011;59838;52.152;5.436;2023-06-14T02:42:09;37.03;;;3.17;;
71969;SDS011;59838;52.152;5.436;2023-06-14T02:44:36;8.13;;;1.33;;
71969;SDS011;59838;52.152;5.436;2023-06-14T02:47:03;3.20;;;1.43;;
71969;SDS011;59838;52.152;5.436;2023-06-14T02:49:31;5.72;;;1.50;;
71969;SDS011;59838;52.152;5.436;2023-06-14T02:51:57;3.80;;;1.70;;
71969;SDS011;59838;52.152;5.436;2023-06-14T02:54:24;5.20;;;0.73;;
71969;SDS011;59838;52.152;5.436;2023-06-14T02:56:50;6.68;;;1.13;;
71969;SDS011;59838;52.152;5.436;2023-06-14T02:59:17;3.43;;;0.80;;
71969;SDS011;59838;52.152;5.436;2023-06-14T03:01:43;3.88;;;0.90;;
71969;SDS011;59838;52.152;5.436;2023-06-14T03:04:10;5.25;;;1.20;;
71969;SDS011;59838;52.152;5.436;2023-06-14T03:06:36;4.20;;;1.27;;
71969;SDS011;59838;52.152;5.436;2023-06-14T03:09:03;4.43;;;1.08;;
71969;SDS011;59838;52.152;5.436;2023-06-14T03:11:35;17.00;;;1.40;;
71969;SDS011;59838;52.152;5.436;2023-06-14T03:14:02;6.00;;;1.13;;
71969;SDS011;59838;52.152;5.436;2023-06-14T03:16:30;3.58;;;1.27;;
71969;SDS011;59838;52.152;5.436;2023-06-14T03:18:57;6.63;;;1.20;;
71969;SDS011;59838;52.152;5.436;2023-06-14T03:21:24;4.88;;;1.05;;
71969;SDS011;59838;52.152;5.436;2023-06-14T03:23:52;3.47;;;1.23;;
71969;SDS011;59838;52.152;5.436;2023-06-14T03:26:19;2.08;;;0.98;;
71969;SDS011;59838;52.152;5.436;2023-06-14T03:28:46;4.63;;;1.95;;
71969;SDS011;59838;52.152;5.436;2023-06-14T03:31:13;3.80;;;1.45;;
71969;SDS011;59838;52.152;5.436;2023-06-14T03:33:40;2.30;;;1.05;;
71969;SDS011;59838;52.152;5.436;2023-06-14T03:36:07;3.97;;;1.10;;
71969;SDS011;59838;52.152;5.436;2023-06-14T03:38:34;2.35;;;1.38;;
71969;SDS011;59838;52.152;5.436;2023-06-14T03:41:01;4.80;;;1.33;;
71969;SDS011;59838;52.152;5.436;2023-06-14T03:43:27;4.40;;;1.45;;
71969;SDS011;59838;52.152;5.436;2023-06-14T03:45:54;3.95;;;1.13;;
71969;SDS011;59838;52.152;5.436;2023-06-14T03:48:20;4.37;;;1.33;;
71969;SDS011;59838;52.152;5.436;2023-06-14T03:50:47;9.32;;;1.52;;
71969;SDS011;59838;52.152;5.436;2023-06-14T03:53:14;9.73;;;1.67;;
71969;SDS011;59838;52.152;5.436;2023-06-14T03:55:40;1.83;;;1.00;;
71969;SDS011;59838;52.152;5.436;2023-06-14T03:58:10;7.60;;;1.75;;
71969;SDS011;59838;52.152;5.436;2023-06-14T04:00:37;4.40;;;1.17;;
71969;SDS011;59838;52.152;5.436;2023-06-14T04:03:04;2.33;;;0.90;;
71969;SDS011;59838;52.152;5.436;2023-06-14T04:05:32;3.33;;;1.48;;
71969;SDS011;59838;52.152;5.436;2023-06-14T04:07:58;3.88;;;1.33;;
71969;SDS011;59838;52.152;5.436;2023-06-14T04:10:26;4.47;;;1.45;;
71969;SDS011;59838;52.152;5.436;2023-06-14T04:12:53;6.43;;;1.67;;
71969;SDS011;59838;52.152;5.436;2023-06-14T04:15:20;12.40;;;1.88;;
71969;SDS011;59838;52.152;5.436;2023-06-14T04:17:47;7.18;;;1.85;;
71969;SDS011;59838;52.152;5.436;2023-06-14T04:20:14;2.35;;;1.15;;
71969;SDS011;59838;52.152;5.436;2023-06-14T04:22:41;3.72;;;1.40;;
71969;SDS011;59838;52.152;5.436;2023-06-14T04:25:09;1.70;;;0.93;;
71969;SDS011;59838;52.152;5.436;2023-06-14T04:27:36;2.95;;;1.42;;
71969;SDS011;59838;52.152;5.436;2023-06-14T04:30:03;2.90;;;1.38;;
71969;SDS011;59838;52.152;5.436;2023-06-14T04:32:30;5.22;;;1.23;;
71969;SDS011;59838;52.152;5.436;2023-06-14T04:34:59;2.10;;;1.60;;
71969;SDS011;59838;52.152;5.436;2023-06-14T04:37:28;3.73;;;1.20;;
71969;SDS011;59838;52.152;5.436;2023-06-14T04:39:56;4.85;;;1.50;;
71969;SDS011;59838;52.152;5.436;2023-06-14T04:42:24;6.50;;;1.80;;
71969;SDS011;59838;52.152;5.436;2023-06-14T04:44:57;3.53;;;1.33;;
71969;SDS011;59838;52.152;5.436;2023-06-14T04:47:23;4.47;;;1.77;;
71969;SDS011;59838;52.152;5.436;2023-06-14T04:49:56;4.63;;;1.47;;
71969;SDS011;59838;52.152;5.436;2023-06-14T04:52:23;2.10;;;1.63;;
71969;SDS011;59838;52.152;5.436;2023-06-14T04:54:52;3.38;;;1.50;;
71969;SDS011;59838;52.152;5.436;2023-06-14T04:57:20;4.13;;;1.35;;
71969;SDS011;59838;52.152;5.436;2023-06-14T04:59:48;2.05;;;1.48;;
71969;SDS011;59838;52.152;5.436;2023-06-14T05:02:17;7.20;;;1.80;;
71969;SDS011;59838;52.152;5.436;2023-06-14T05:04:44;3.67;;;1.45;;
71969;SDS011;59838;52.152;5.436;2023-06-14T05:07:11;7.50;;;2.10;;
71969;SDS011;59838;52.152;5.436;2023-06-14T05:09:38;3.25;;;1.50;;
71969;SDS011;59838;52.152;5.436;2023-06-14T05:12:05;3.60;;;1.73;;
71969;SDS011;59838;52.152;5.436;2023-06-14T05:14:34;6.37;;;1.80;;
71969;SDS011;59838;52.152;5.436;2023-06-14T05:17:01;5.75;;;1.50;;
71969;SDS011;59838;52.152;5.436;2023-06-14T05:19:28;2.97;;;1.90;;
71969;SDS011;59838;52.152;5.436;2023-06-14T05:21:55;5.25;;;2.03;;
71969;SDS011;59838;52.152;5.436;2023-06-14T05:24:21;9.95;;;2.42;;
71969;SDS011;59838;52.152;5.436;2023-06-14T05:26:48;2.13;;;1.37;;
71969;SDS011;59838;52.152;5.436;2023-06-14T05:29:15;4.13;;;1.80;;
71969;SDS011;59838;52.152;5.436;2023-06-14T05:31:42;3.97;;;2.03;;
71969;SDS011;59838;52.152;5.436;2023-06-14T05:34:08;6.70;;;2.05;;
71969;SDS011;59838;52.152;5.436;2023-06-14T05:36:35;8.05;;;1.88;;
71969;SDS011;59838;52.152;5.436;2023-06-14T05:39:03;6.57;;;1.97;;
71969;SDS011;59838;52.152;5.436;2023-06-14T05:41:30;6.22;;;1.58;;
71969;SDS011;59838;52.152;5.436;2023-06-14T05:43:57;4.18;;;2.30;;
71969;SDS011;59838;52.152;5.436;2023-06-14T05:46:24;3.70;;;1.55;;
71969;SDS011;59838;52.152;5.436;2023-06-14T05:48:52;2.63;;;1.85;;
71969;SDS011;59838;52.152;5.436;2023-06-14T05:51:19;4.03;;;1.90;;
71969;SDS011;59838;52.152;5.436;2023-06-14T05:53:46;3.35;;;1.70;;
71969;SDS011;59838;52.152;5.436;2023-06-14T05:56:13;3.72;;;1.70;;
71969;SDS011;59838;52.152;5.436;2023-06-14T05:58:41;4.68;;;1.63;;
71969;SDS011;59838;52.152;5.436;2023-06-14T06:01:07;2.88;;;2.13;;
71969;SDS011;59838;52.152;5.436;2023-06-14T06:03:34;5.93;;;1.50;;
71969;SDS011;59838;52.152;5.436;2023-06-14T06:06:00;4.72;;;2.13;;
71969;SDS011;59838;52.152;5.436;2023-06-14T06:08:27;4.03;;;2.05;;
71969;SDS011;59838;52.152;5.436;2023-06-14T06:10:54;4.63;;;2.00;;
71969;SDS011;59838;52.152;5.436;2023-06-14T06:13:20;4.38;;;1.60;;
71969;SDS011;59838;52.152;5.436;2023-06-14T06:15:47;5.37;;;1.60;;
71969;SDS011;59838;52.152;5.436;2023-06-14T06:18:13;4.70;;;2.10;;
71969;SDS011;59838;52.152;5.436;2023-06-14T06:20:40;12.98;;;1.92;;
71969;SDS011;59838;52.152;5.436;2023-06-14T06:23:06;5.53;;;1.75;;
71969;SDS011;59838;52.152;5.436;2023-06-14T06:25:34;5.18;;;2.00;;
71969;SDS011;59838;52.152;5.436;2023-06-14T06:28:00;4.27;;;2.57;;
71969;SDS011;59838;52.152;5.436;2023-06-14T06:30:27;4.90;;;1.90;;
71969;SDS011;59838;52.152;5.436;2023-06-14T06:32:54;3.88;;;2.08;;
71969;SDS011;59838;52.152;5.436;2023-06-14T06:35:22;2.65;;;1.70;;
71969;SDS011;59838;52.152;5.436;2023-06-14T06:37:48;9.13;;;2.28;;
71969;SDS011;59838;52.152;5.436;2023-06-14T06:40:15;13.83;;;2.50;;
71969;SDS011;59838;52.152;5.436;2023-06-14T06:42:41;3.83;;;1.90;;
71969;SDS011;59838;52.152;5.436;2023-06-14T06:45:08;7.32;;;2.50;;
71969;SDS011;59838;52.152;5.436;2023-06-14T06:47:35;6.90;;;1.80;;
71969;SDS011;59838;52.152;5.436;2023-06-14T06:50:01;7.07;;;2.67;;
71969;SDS011;59838;52.152;5.436;2023-06-14T06:52:28;14.03;;;2.33;;
71969;SDS011;59838;52.152;5.436;2023-06-14T06:54:55;8.20;;;2.25;;
71969;SDS011;59838;52.152;5.436;2023-06-14T06:57:22;6.30;;;2.47;;
71969;SDS011;59838;52.152;5.436;2023-06-14T06:59:49;8.75;;;2.20;;
71969;SDS011;59838;52.152;5.436;2023-06-14T07:02:16;8.85;;;3.28;;
71969;SDS011;59838;52.152;5.436;2023-06-14T07:04:43;5.97;;;1.97;;
71969;SDS011;59838;52.152;5.436;2023-06-14T07:07:09;10.90;;;2.20;;
71969;SDS011;59838;52.152;5.436;2023-06-14T07:09:36;6.95;;;1.98;;
71969;SDS011;59838;52.152;5.436;2023-06-14T07:12:03;15.48;;;2.90;;
71969;SDS011;59838;52.152;5.436;2023-06-14T07:14:29;9.60;;;3.05;;
71969;SDS011;59838;52.152;5.436;2023-06-14T07:16:56;16.00;;;2.83;;
71969;SDS011;59838;52.152;5.436;2023-06-14T07:19:23;4.50;;;1.90;;
71969;SDS011;59838;52.152;5.436;2023-06-14T07:21:49;7.40;;;1.95;;
71969;SDS011;59838;52.152;5.436;2023-06-14T07:24:16;7.60;;;1.50;;
71969;SDS011;59838;52.152;5.436;2023-06-14T07:26:43;3.63;;;1.77;;
71969;SDS011;59838;52.152;5.436;2023-06-14T07:29:09;2.87;;;1.03;;
71969;SDS011;59838;52.152;5.436;2023-06-14T07:31:36;2.08;;;1.63;;
71969;SDS011;59838;52.152;5.436;2023-06-14T07:34:03;7.18;;;1.98;;
71969;SDS011;59838;52.152;5.436;2023-06-14T07:36:29;5.55;;;1.90;;
71969;SDS011;59838;52.152;5.436;2023-06-14T07:38:56;8.00;;;1.88;;
71969;SDS011;59838;52.152;5.436;2023-06-14T07:41:22;6.03;;;1.37;;
71969;SDS011;59838;52.152;5.436;2023-06-14T07:43:49;8.32;;;1.75;;
71969;SDS011;59838;52.152;5.436;2023-06-14T07:46:15;7.60;;;1.83;;
71969;SDS011;59838;52.152;5.436;2023-06-14T07:48:42;5.18;;;1.73;;
71969;SDS011;59838;52.152;5.436;2023-06-14T07:51:08;7.57;;;2.10;;
71969;SDS011;59838;52.152;5.436;2023-06-14T07:53:35;4.13;;;1.30;;
71969;SDS011;59838;52.152;5.436;2023-06-14T07:56:01;5.68;;;1.30;;
71969;SDS011;59838;52.152;5.436;2023-06-14T07:58:29;3.38;;;1.27;;
71969;SDS011;59838;52.152;5.436;2023-06-14T08:00:55;6.35;;;1.45;;
71969;SDS011;59838;52.152;5.436;2023-06-14T08:03:22;5.32;;;1.40;;
71969;SDS011;59838;52.152;5.436;2023-06-14T08:05:48;2.47;;;0.93;;
71969;SDS011;59838;52.152;5.436;2023-06-14T08:08:15;2.85;;;0.98;;
71969;SDS011;59838;52.152;5.436;2023-06-14T08:10:42;7.75;;;1.10;;
71969;SDS011;59838;52.152;5.436;2023-06-14T08:13:08;1.73;;;1.00;;
71969;SDS011;59838;52.152;5.436;2023-06-14T08:15:36;6.22;;;2.10;;
71969;SDS011;59838;52.152;5.436;2023-06-14T08:18:02;2.00;;;0.90;;
71969;SDS011;59838;52.152;5.436;2023-06-14T08:20:29;10.80;;;1.77;;
71969;SDS011;59838;52.152;5.436;2023-06-14T08:22:57;6.88;;;1.00;;
71969;SDS011;59838;52.152;5.436;2023-06-14T08:25:24;4.43;;;0.90;;
71969;SDS011;59838;52.152;5.436;2023-06-14T08:27:51;3.20;;;0.80;;
71969;SDS011;59838;52.152;5.436;2023-06-14T08:30:17;3.20;;;0.87;;
71969;SDS011;59838;52.152;5.436;2023-06-14T08:32:44;2.55;;;0.80;;
71969;SDS011;59838;52.152;5.436;2023-06-14T08:35:11;3.25;;;1.05;;
71969;SDS011;59838;52.152;5.436;2023-06-14T08:37:39;2.45;;;0.88;;
71969;SDS011;59838;52.152;5.436;2023-06-14T08:40:20;3.38;;;1.08;;
71969;SDS011;59838;52.152;5.436;2023-06-14T08:42:52;3.40;;;0.80;;
71969;SDS011;59838;52.152;5.436;2023-06-14T08:45:20;17.48;;;1.23;;
71969;SDS011;59838;52.152;5.436;2023-06-14T08:47:51;7.93;;;1.02;;
71969;SDS011;59838;52.152;5.436;2023-06-14T08:50:21;18.65;;;1.55;;
71969;SDS011;59838;52.152;5.436;2023-06-14T08:52:54;5.95;;;1.23;;
71969;SDS011;59838;52.152;5.436;2023-06-14T08:55:23;1.10;;;0.60;;
71969;SDS011;59838;52.152;5.436;2023-06-14T08:57:54;7.85;;;1.17;;
71969;SDS011;59838;52.152;5.436;2023-06-14T09:00:24;2.65;;;1.13;;
71969;SDS011;59838;52.152;5.436;2023-06-14T09:02:52;3.00;;;0.63;;
71969;SDS011;59838;52.152;5.436;2023-06-14T09:05:24;1.92;;;0.60;;
71969;SDS011;59838;52.152;5.436;2023-06-14T09:07:51;1.80;;;0.60;;
71969;SDS011;59838;52.152;5.436;2023-06-14T09:10:18;2.50;;;0.73;;
71969;SDS011;59838;52.152;5.436;2023-06-14T09:12:47;1.63;;;0.80;;
71969;SDS011;59838;52.152;5.436;2023-06-14T09:15:14;0.93;;;0.60;;
71969;SDS011;59838;52.152;5.436;2023-06-14T09:17:41;6.22;;;0.98;;
71969;SDS011;59838;52.152;5.436;2023-06-14T09:20:08;6.70;;;1.87;;
71969;SDS011;59838;52.152;5.436;2023-06-14T09:22:37;4.45;;;0.88;;
71969;SDS011;59838;52.152;5.436;2023-06-14T09:25:04;5.22;;;0.90;;
71969;SDS011;59838;52.152;5.436;2023-06-14T09:27:32;19.00;;;1.88;;
71969;SDS011;59838;52.152;5.436;2023-06-14T09:30:04;4.43;;;0.90;;
71969;SDS011;59838;52.152;5.436;2023-06-14T09:32:31;3.37;;;1.47;;
71969;SDS011;59838;52.152;5.436;2023-06-14T09:34:58;1.83;;;0.57;;
71969;SDS011;59838;52.152;5.436;2023-06-14T09:37:28;2.33;;;0.80;;
71969;SDS011;59838;52.152;5.436;2023-06-14T09:39:58;5.38;;;1.20;;
71969;SDS011;59838;52.152;5.436;2023-06-14T09:42:25;15.30;;;0.82;;
71969;SDS011;59838;52.152;5.436;2023-06-14T09:44:54;6.47;;;0.87;;
71969;SDS011;59838;52.152;5.436;2023-06-14T09:47:21;2.53;;;0.73;;
71969;SDS011;59838;52.152;5.436;2023-06-14T09:49:49;11.02;;;1.13;;
71969;SDS011;59838;52.152;5.436;2023-06-14T09:52:17;3.70;;;0.68;;
71969;SDS011;59838;52.152;5.436;2023-06-14T09:54:45;4.50;;;0.85;;
71969;SDS011;59838;52.152;5.436;2023-06-14T09:57:14;1.33;;;0.80;;
71969;SDS011;59838;52.152;5.436;2023-06-14T09:59:42;4.80;;;1.10;;
71969;SDS011;59838;52.152;5.436;2023-06-14T10:02:18;1.98;;;0.75;;
71969;SDS011;59838;52.152;5.436;2023-06-14T10:04:53;2.13;;;0.65;;
71969;SDS011;59838;52.152;5.436;2023-06-14T10:07:42;5.93;;;0.60;;
71969;SDS011;59838;52.152;5.436;2023-06-14T10:10:16;6.73;;;0.60;;
71969;SDS011;59838;52.152;5.436;2023-06-14T10:12:43;1.90;;;0.70;;
71969;SDS011;59838;52.152;5.436;2023-06-14T10:15:10;1.77;;;0.98;;
71969;SDS011;59838;52.152;5.436;2023-06-14T10:17:50;3.10;;;1.10;;
71969;SDS011;59838;52.152;5.436;2023-06-14T10:20:30;3.53;;;1.00;;
71969;SDS011;59838;52.152;5.436;2023-06-14T10:23:22;5.73;;;0.83;;
71969;SDS011;59838;52.152;5.436;2023-06-14T10:25:54;2.90;;;0.90;;
71969;SDS011;59838;52.152;5.436;2023-06-14T10:28:22;1.92;;;0.73;;
71969;SDS011;59838;52.152;5.436;2023-06-14T10:33:49;2.50;;;0.77;;
71969;SDS011;59838;52.152;5.436;2023-06-14T10:36:26;5.37;;;1.00;;
71969;SDS011;59838;52.152;5.436;2023-06-14T10:41:35;3.00;;;0.85;;
71969;SDS011;59838;52.152;5.436;2023-06-14T10:46:39;5.05;;;1.05;;
71969;SDS011;59838;52.152;5.436;2023-06-14T10:49:10;2.77;;;0.63;;
71969;SDS011;59838;52.152;5.436;2023-06-14T10:51:41;4.35;;;0.93;;
71969;SDS011;59838;52.152;5.436;2023-06-14T10:54:12;1.20;;;0.80;;
71969;SDS011;59838;52.152;5.436;2023-06-14T10:56:48;4.80;;;0.93;;
71969;SDS011;59838;52.152;5.436;2023-06-14T10:59:17;4.55;;;0.90;;
71969;SDS011;59838;52.152;5.436;2023-06-14T11:04:46;4.18;;;0.65;;
71969;SDS011;59838;52.152;5.436;2023-06-14T11:12:54;1.83;;;0.90;;
71969;SDS011;59838;52.152;5.436;2023-06-14T11:15:27;1.07;;;0.70;;
71969;SDS011;59838;52.152;5.436;2023-06-14T11:17:54;1.70;;;0.60;;
71969;SDS011;59838;52.152;5.436;2023-06-14T11:20:24;7.05;;;0.90;;
71969;SDS011;59838;52.152;5.436;2023-06-14T11:22:54;5.53;;;0.77;;
71969;SDS011;59838;52.152;5.436;2023-06-14T11:25:20;2.55;;;0.95;;
71969;SDS011;59838;52.152;5.436;2023-06-14T11:27:48;1.23;;;0.70;;
71969;SDS011;59838;52.152;5.436;2023-06-14T11:30:16;3.53;;;1.08;;
71969;SDS011;59838;52.152;5.436;2023-06-14T11:32:46;1.42;;;0.70;;
71969;SDS011;59838;52.152;5.436;2023-06-14T11:35:13;2.63;;;0.80;;
71969;SDS011;59838;52.152;5.436;2023-06-14T11:37:41;1.83;;;1.08;;
71969;SDS011;59838;52.152;5.436;2023-06-14T11:40:08;7.83;;;0.70;;
71969;SDS011;59838;52.152;5.436;2023-06-14T11:42:36;3.30;;;0.85;;
71969;SDS011;59838;52.152;5.436;2023-06-14T11:45:03;4.00;;;0.88;;
71969;SDS011;59838;52.152;5.436;2023-06-14T11:47:41;2.25;;;0.73;;
71969;SDS011;59838;52.152;5.436;2023-06-14T11:50:08;2.08;;;0.65;;
71969;SDS011;59838;52.152;5.436;2023-06-14T11:52:36;2.37;;;0.60;;
71969;SDS011;59838;52.152;5.436;2023-06-14T11:55:03;2.63;;;0.77;;
71969;SDS011;59838;52.152;5.436;2023-06-14T11:57:33;2.17;;;0.70;;
71969;SDS011;59838;52.152;5.436;2023-06-14T12:00:08;2.08;;;0.90;;
71969;SDS011;59838;52.152;5.436;2023-06-14T12:02:41;2.08;;;0.80;;
71969;SDS011;59838;52.152;5.436;2023-06-14T12:05:08;3.80;;;0.80;;
71969;SDS011;59838;52.152;5.436;2023-06-14T12:07:36;1.70;;;1.00;;
71969;SDS011;59838;52.152;5.436;2023-06-14T12:10:04;1.10;;;0.70;;
71969;SDS011;59838;52.152;5.436;2023-06-14T12:12:37;4.65;;;0.77;;
71969;SDS011;59838;52.152;5.436;2023-06-14T12:15:05;2.95;;;1.05;;
71969;SDS011;59838;52.152;5.436;2023-06-14T12:17:34;2.23;;;1.00;;
71969;SDS011;59838;52.152;5.436;2023-06-14T12:20:05;4.00;;;1.08;;
71969;SDS011;59838;52.152;5.436;2023-06-14T12:22:54;2.08;;;0.90;;
71969;SDS011;59838;52.152;5.436;2023-06-14T12:25:23;2.45;;;0.75;;
71969;SDS011;59838;52.152;5.436;2023-06-14T12:28:03;2.45;;;0.98;;
71969;SDS011;59838;52.152;5.436;2023-06-14T12:30:36;3.83;;;0.90;;
71969;SDS011;59838;52.152;5.436;2023-06-14T12:33:04;2.38;;;1.10;;
71969;SDS011;59838;52.152;5.436;2023-06-14T12:35:32;1.55;;;1.08;;
71969;SDS011;59838;52.152;5.436;2023-06-14T12:37:58;2.78;;;1.20;;
71969;SDS011;59838;52.152;5.436;2023-06-14T12:40:25;1.98;;;0.88;;
71969;SDS011;59838;52.152;5.436;2023-06-14T12:42:52;3.93;;;0.80;;
71969;SDS011;59838;52.152;5.436;2023-06-14T12:45:19;6.25;;;0.88;;
71969;SDS011;59838;52.152;5.436;2023-06-14T12:47:45;2.53;;;0.60;;
71969;SDS011;59838;52.152;5.436;2023-06-14T12:50:12;6.10;;;0.73;;
71969;SDS011;59838;52.152;5.436;2023-06-14T12:52:39;7.00;;;0.82;;
71969;SDS011;59838;52.152;5.436;2023-06-14T12:55:05;5.07;;;0.90;;
71969;SDS011;59838;52.152;5.436;2023-06-14T12:57:32;4.50;;;2.08;;
71969;SDS011;59838;52.152;5.436;2023-06-14T13:00:01;1.80;;;0.82;;
71969;SDS011;59838;52.152;5.436;2023-06-14T13:02:27;2.03;;;0.82;;
71969;SDS011;59838;52.152;5.436;2023-06-14T13:04:55;4.00;;;0.90;;
71969;SDS011;59838;52.152;5.436;2023-06-14T13:07:21;7.50;;;1.50;;
71969;SDS011;59838;52.152;5.436;2023-06-14T13:09:48;4.40;;;1.00;;
71969;SDS011;59838;52.152;5.436;2023-06-14T13:12:14;3.05;;;1.10;;
71969;SDS011;59838;52.152;5.436;2023-06-14T13:14:41;4.88;;;0.80;;
71969;SDS011;59838;52.152;5.436;2023-06-14T13:17:08;1.40;;;0.63;;
71969;SDS011;59838;52.152;5.436;2023-06-14T13:19:36;5.33;;;0.90;;
71969;SDS011;59838;52.152;5.436;2023-06-14T13:22:03;3.00;;;0.90;;
71969;SDS011;59838;52.152;5.436;2023-06-14T13:24:29;5.35;;;1.00;;
71969;SDS011;59838;52.152;5.436;2023-06-14T13:26:56;4.55;;;0.90;;
71969;SDS011;59838;52.152;5.436;2023-06-14T13:29:24;3.60;;;0.73;;
71969;SDS011;59838;52.152;5.436;2023-06-14T13:31:51;9.70;;;1.07;;
71969;SDS011;59838;52.152;5.436;2023-06-14T13:34:18;5.88;;;1.08;;
71969;SDS011;59838;52.152;5.436;2023-06-14T13:36:45;4.78;;;0.95;;
71969;SDS011;59838;52.152;5.436;2023-06-14T13:39:12;4.90;;;0.93;;
71969;SDS011;59838;52.152;5.436;2023-06-14T13:41:39;14.43;;;1.10;;
71969;SDS011;59838;52.152;5.436;2023-06-14T13:44:05;7.93;;;1.10;;
71969;SDS011;59838;52.152;5.436;2023-06-14T13:46:32;1.80;;;0.95;;
71969;SDS011;59838;52.152;5.436;2023-06-14T13:48:58;1.52;;;0.70;;
71969;SDS011;59838;52.152;5.436;2023-06-14T13:51:26;1.98;;;0.73;;
71969;SDS011;59838;52.152;5.436;2023-06-14T13:53:53;5.80;;;0.65;;
71969;SDS011;59838;52.152;5.436;2023-06-14T13:56:21;5.23;;;0.80;;
71969;SDS011;59838;52.152;5.436;2023-06-14T13:58:50;6.97;;;0.90;;
71969;SDS011;59838;52.152;5.436;2023-06-14T14:01:18;6.25;;;1.10;;
71969;SDS011;59838;52.152;5.436;2023-06-14T14:03:46;4.40;;;0.95;;
71969;SDS011;59838;52.152;5.436;2023-06-14T14:06:13;2.13;;;0.88;;
71969;SDS011;59838;52.152;5.436;2023-06-14T14:08:39;4.70;;;0.90;;
71969;SDS011;59838;52.152;5.436;2023-06-14T14:11:05;3.40;;;1.02;;
71969;SDS011;59838;52.152;5.436;2023-06-14T14:13:32;3.00;;;0.85;;
71969;SDS011;59838;52.152;5.436;2023-06-14T14:15:59;3.40;;;1.45;;
71969;SDS011;59838;52.152;5.436;2023-06-14T14:18:26;6.50;;;1.02;;
71969;SDS011;59838;52.152;5.436;2023-06-14T14:20:57;3.13;;;0.63;;
71969;SDS011;59838;52.152;5.436;2023-06-14T14:23:23;4.25;;;0.82;;
71969;SDS011;59838;52.152;5.436;2023-06-14T14:25:50;2.10;;;0.82;;
71969;SDS011;59838;52.152;5.436;2023-06-14T14:28:16;5.20;;;0.82;;
71969;SDS011;59838;52.152;5.436;2023-06-14T14:30:45;2.35;;;0.73;;
71969;SDS011;59838;52.152;5.436;2023-06-14T14:33:13;2.50;;;0.73;;
71969;SDS011;59838;52.152;5.436;2023-06-14T14:35:42;6.25;;;1.42;;
71969;SDS011;59838;52.152;5.436;2023-06-14T14:38:12;4.15;;;0.80;;
71969;SDS011;59838;52.152;5.436;2023-06-14T14:40:39;3.85;;;0.85;;
71969;SDS011;59838;52.152;5.436;2023-06-14T14:43:06;3.15;;;0.75;;
71969;SDS011;59838;52.152;5.436;2023-06-14T14:45:33;2.70;;;0.73;;
71969;SDS011;59838;52.152;5.436;2023-06-14T14:48:00;3.90;;;0.77;;
71969;SDS011;59838;52.152;5.436;2023-06-14T14:50:27;2.13;;;0.82;;
71969;SDS011;59838;52.152;5.436;2023-06-14T14:52:54;8.35;;;1.08;;
71969;SDS011;59838;52.152;5.436;2023-06-14T14:55:20;4.30;;;1.23;;
71969;SDS011;59838;52.152;5.436;2023-06-14T14:57:47;4.27;;;1.00;;
71969;SDS011;59838;52.152;5.436;2023-06-14T15:00:14;4.88;;;0.75;;
71969;SDS011;59838;52.152;5.436;2023-06-14T15:02:41;5.55;;;1.25;;
71969;SDS011;59838;52.152;5.436;2023-06-14T15:05:08;2.15;;;0.80;;
71969;SDS011;59838;52.152;5.436;2023-06-14T15:07:34;4.55;;;0.75;;
71969;SDS011;59838;52.152;5.436;2023-06-14T15:10:01;3.67;;;0.70;;
71969;SDS011;59838;52.152;5.436;2023-06-14T15:12:27;3.72;;;0.80;;